createdAt,value
2023-04-19T00:02:05.684Z,68.22
2023-04-19T00:04:32.549Z,67.91
2023-04-19T00:06:59.342Z,67.63
2023-04-19T00:09:25.990Z,67.71
2023-04-19T00:11:52.973Z,67.59
2023-04-19T00:14:19.903Z,67.56
2023-04-19T00:16:46.685Z,67.54
2023-04-19T00:19:13.319Z,67.27
2023-04-19T00:21:39.882Z,67.59
2023-04-19T00:24:06.718Z,67.45
2023-04-19T00:26:33.270Z,67.18
2023-04-19T00:29:00.019Z,67.48
2023-04-19T00:31:26.740Z,67.78
2023-04-19T00:33:53.402Z,67.83
2023-04-19T00:36:19.994Z,68.06
2023-04-19T00:38:47.140Z,67.86
2023-04-19T00:41:13.769Z,67.59
2023-04-19T00:43:40.449Z,67.78
2023-04-19T00:46:07.381Z,67.88
2023-04-19T00:48:35.205Z,67.75
2023-04-19T00:51:02.404Z,67.58
2023-04-19T00:53:29.180Z,67.60
2023-04-19T00:55:59.969Z,67.84
2023-04-19T00:58:27.116Z,67.73
2023-04-19T01:00:53.784Z,67.42
2023-04-19T01:06:01.446Z,67.51
2023-04-19T01:08:28.654Z,67.66
2023-04-19T01:10:55.355Z,67.66
2023-04-19T01:13:22.267Z,67.67
2023-04-19T01:15:49.241Z,67.81
2023-04-19T01:18:16.068Z,68.15
2023-04-19T01:20:43.117Z,68.27
2023-04-19T01:23:10.183Z,68.34
2023-04-19T01:25:37.435Z,68.36
2023-04-19T01:28:04.628Z,68.71
2023-04-19T01:30:31.532Z,68.80
2023-04-19T01:32:58.587Z,68.94
2023-04-19T01:35:25.670Z,69.04
2023-04-19T01:37:52.537Z,69.27
2023-04-19T01:40:19.561Z,68.95
2023-04-19T01:42:46.385Z,68.61
2023-04-19T01:45:13.207Z,68.49
2023-04-19T01:47:40.188Z,68.20
2023-04-19T01:50:07.868Z,68.50
2023-04-19T01:52:35.930Z,68.75
2023-04-19T01:55:02.793Z,68.72
2023-04-19T01:57:30.239Z,68.86
2023-04-19T01:59:57.498Z,68.96
2023-04-19T02:02:24.597Z,68.94
2023-04-19T02:04:51.422Z,69.07
2023-04-19T02:07:18.374Z,69.04
2023-04-19T02:09:45.210Z,69.08
2023-04-19T02:12:12.462Z,69.16
2023-04-19T02:14:39.163Z,69.30
2023-04-19T02:17:06.168Z,69.43
2023-04-19T02:19:32.973Z,69.68
2023-04-19T02:21:59.838Z,69.65
2023-04-19T02:24:26.598Z,69.47
2023-04-19T02:26:53.581Z,69.46
2023-04-19T02:29:20.471Z,69.49
2023-04-19T02:31:47.337Z,69.47
2023-04-19T02:34:14.380Z,69.46
2023-04-19T02:36:41.349Z,69.51
2023-04-19T02:39:08.205Z,69.62
2023-04-19T02:41:38.171Z,69.80
2023-04-19T02:44:05.178Z,69.71
2023-04-19T02:46:32.081Z,69.73
2023-04-19T02:49:01.295Z,69.42
2023-04-19T02:51:28.179Z,69.60
2023-04-19T02:53:55.243Z,69.58
2023-04-19T02:56:22.057Z,69.47
2023-04-19T02:58:49.026Z,69.47
2023-04-19T03:01:16.421Z,69.55
2023-04-19T03:03:43.328Z,69.72
2023-04-19T03:06:10.217Z,69.66
2023-04-19T03:08:37.045Z,69.36
2023-04-19T03:11:03.906Z,69.42
2023-04-19T03:13:31.205Z,69.44
2023-04-19T03:15:58.237Z,69.47
2023-04-19T03:18:24.988Z,69.41
2023-04-19T03:20:54.851Z,69.45
2023-04-19T03:23:21.897Z,69.69
2023-04-19T03:25:50.126Z,69.59
2023-04-19T03:28:46.110Z,69.79
2023-04-19T03:31:22.371Z,69.72
2023-04-19T03:33:51.173Z,69.84
2023-04-19T03:36:19.872Z,69.78
2023-04-19T03:38:47.404Z,69.79
2023-04-19T03:41:26.248Z,69.43
2023-04-19T03:44:28.486Z,69.88
2023-04-19T03:46:55.362Z,69.94
2023-04-19T03:49:26.363Z,69.94
2023-04-19T03:52:03.826Z,70.21
2023-04-19T03:54:30.761Z,70.17
2023-04-19T03:56:59.651Z,70.46
2023-04-19T03:59:26.769Z,70.60
2023-04-19T04:01:55.051Z,70.59
2023-04-19T04:04:23.000Z,70.69
2023-04-19T04:06:50.273Z,70.75
2023-04-19T04:09:17.450Z,70.62
2023-04-19T04:11:44.489Z,70.77
2023-04-19T04:14:12.104Z,70.75
2023-04-19T04:16:39.457Z,70.67
2023-04-19T04:19:07.138Z,70.76
2023-04-19T04:21:36.830Z,70.46
2023-04-19T04:24:05.268Z,70.08
2023-04-19T04:26:52.641Z,70.20
2023-04-19T04:29:25.175Z,70.13
2023-04-19T04:31:55.113Z,70.23
2023-04-19T04:34:26.276Z,70.37
2023-04-19T04:37:01.758Z,70.12
2023-04-19T04:39:29.667Z,70.29
2023-04-19T04:41:56.920Z,70.51
2023-04-19T04:44:24.737Z,70.35
2023-04-19T04:46:51.766Z,69.88
2023-04-19T04:49:24.405Z,70.16
2023-04-19T04:51:51.376Z,70.21
2023-04-19T04:54:18.716Z,70.14
2023-04-19T04:56:47.028Z,70.14
2023-04-19T04:59:14.558Z,70.17
2023-04-19T05:01:44.391Z,70.23
2023-04-19T05:04:11.884Z,70.18
2023-04-19T05:06:38.712Z,70.23
2023-04-19T05:09:05.425Z,70.50
2023-04-19T05:11:36.200Z,70.46
2023-04-19T05:14:03.747Z,70.68
2023-04-19T05:16:33.193Z,70.66
2023-04-19T05:19:00.313Z,70.85
2023-04-19T05:21:29.889Z,70.66
2023-04-19T05:23:57.122Z,70.71
2023-04-19T05:26:23.805Z,70.42
2023-04-19T05:28:51.555Z,70.43
2023-04-19T05:31:28.717Z,70.46
2023-04-19T05:34:13.994Z,70.39
2023-04-19T05:36:40.868Z,70.22
2023-04-19T05:39:07.512Z,69.94
2023-04-19T05:41:34.141Z,69.75
2023-04-19T05:44:00.868Z,69.71
2023-04-19T05:46:27.676Z,69.71
2023-04-19T05:48:55.914Z,69.71
2023-04-19T05:51:41.177Z,69.70
2023-04-19T05:54:11.969Z,69.70
2023-04-19T05:56:40.842Z,69.80
2023-04-19T05:59:07.586Z,70.05
2023-04-19T06:01:34.179Z,70.15
2023-04-19T06:04:01.406Z,69.81
2023-04-19T06:06:28.371Z,69.58
2023-04-19T06:08:55.240Z,69.64
2023-04-19T06:11:28.840Z,69.58
2023-04-19T06:13:58.481Z,69.50
2023-04-19T06:16:25.704Z,69.26
2023-04-19T06:18:52.549Z,69.40
2023-04-19T06:21:19.326Z,69.20
2023-04-19T06:23:45.990Z,69.40
2023-04-19T06:26:12.580Z,68.86
2023-04-19T06:28:39.195Z,69.03
2023-04-19T06:31:05.915Z,68.94
2023-04-19T06:33:32.610Z,68.94
2023-04-19T06:35:59.229Z,68.53
2023-04-19T06:38:26.033Z,68.66
2023-04-19T06:40:52.757Z,69.04
2023-04-19T06:43:19.476Z,69.11
2023-04-19T06:45:46.249Z,69.16
2023-04-19T06:48:12.914Z,69.04
2023-04-19T06:50:39.583Z,69.28
2023-04-19T06:53:06.205Z,69.42
2023-04-19T06:55:32.858Z,69.67
2023-04-19T06:57:59.563Z,69.52
2023-04-19T07:00:26.104Z,69.67
2023-04-19T07:02:52.869Z,69.56
2023-04-19T07:05:19.696Z,69.72
2023-04-19T07:07:46.280Z,70.00
2023-04-19T07:10:12.922Z,70.06
2023-04-19T07:12:39.525Z,70.11
2023-04-19T07:15:06.701Z,69.95
2023-04-19T07:17:35.192Z,69.91
2023-04-19T07:20:02.436Z,69.98
2023-04-19T07:22:29.035Z,69.72
2023-04-19T07:24:55.726Z,69.60
2023-04-19T07:27:22.506Z,69.50
2023-04-19T07:29:49.149Z,69.46
2023-04-19T07:32:15.996Z,69.26
2023-04-19T07:34:42.682Z,69.37
2023-04-19T07:37:09.715Z,69.36
2023-04-19T07:39:36.375Z,69.50
2023-04-19T07:42:03.035Z,69.76
2023-04-19T07:44:29.925Z,69.36
2023-04-19T07:46:56.685Z,68.98
2023-04-19T07:49:23.419Z,69.13
2023-04-19T07:51:50.292Z,68.83
2023-04-19T07:54:17.087Z,69.40
2023-04-19T07:56:44.216Z,69.90
2023-04-19T07:59:10.862Z,70.26
2023-04-19T08:01:37.639Z,70.74
2023-04-19T08:04:05.098Z,71.06
2023-04-19T08:06:31.937Z,70.93
2023-04-19T08:08:58.555Z,70.48
2023-04-19T08:11:25.355Z,70.08
2023-04-19T08:14:04.411Z,70.07
2023-04-19T08:19:06.038Z,69.22
2023-04-19T08:21:40.591Z,69.66
2023-04-19T08:24:08.638Z,69.88
2023-04-19T08:26:35.221Z,70.37
2023-04-19T08:29:01.809Z,70.68
2023-04-19T08:31:28.545Z,70.85
2023-04-19T08:33:55.259Z,70.99
2023-04-19T08:36:28.685Z,71.64
2023-04-19T08:39:29.308Z,71.79
2023-04-19T08:41:59.034Z,70.94
2023-04-19T08:44:36.476Z,70.45
2023-04-19T08:47:04.894Z,70.10
2023-04-19T08:49:35.299Z,67.65
2023-04-19T08:52:02.755Z,69.28
2023-04-19T08:54:35.112Z,66.19
2023-04-19T08:57:02.697Z,68.10
2023-04-19T08:59:29.338Z,66.98
2023-04-19T09:01:56.040Z,65.71
2023-04-19T09:04:36.369Z,64.70
2023-04-19T09:07:03.305Z,64.53
2023-04-19T09:09:37.005Z,64.54
2023-04-19T09:12:18.146Z,62.94
2023-04-19T09:14:59.757Z,64.65
2023-04-19T09:17:28.564Z,65.16
2023-04-19T09:19:55.459Z,65.75
2023-04-19T09:22:22.257Z,66.05
2023-04-19T09:27:32.650Z,62.66
2023-04-19T09:30:01.177Z,65.01
2023-04-19T09:32:28.940Z,65.20
2023-04-19T09:34:57.961Z,64.91
2023-04-19T09:39:59.822Z,65.10
2023-04-19T09:43:04.366Z,62.53
2023-04-19T09:45:45.990Z,58.78
2023-04-19T09:48:14.004Z,62.62
2023-04-19T09:50:59.574Z,60.16
2023-04-19T09:53:30.824Z,64.20
2023-04-19T09:56:02.251Z,65.23
2023-04-19T09:58:38.100Z,65.34
2023-04-19T10:01:17.484Z,65.86
2023-04-19T10:03:49.575Z,62.66
2023-04-19T10:08:50.611Z,63.97
2023-04-19T10:11:18.904Z,64.67
2023-04-19T10:13:48.535Z,60.74
2023-04-19T10:16:20.139Z,63.54
2023-04-19T10:18:49.633Z,63.98
2023-04-19T10:21:16.404Z,63.66
2023-04-19T10:23:43.121Z,62.25
2023-04-19T10:26:09.797Z,62.59
2023-04-19T10:28:36.473Z,60.04
2023-04-19T10:31:04.779Z,60.66
2023-04-19T10:33:35.708Z,58.08
2023-04-19T10:36:02.804Z,60.57
2023-04-19T10:38:47.281Z,58.46
2023-04-19T10:41:18.894Z,55.54
2023-04-19T10:43:46.712Z,54.69
2023-04-19T10:46:23.372Z,55.36
2023-04-19T10:49:00.485Z,55.24
2023-04-19T10:51:35.518Z,56.27
2023-04-19T10:54:03.101Z,56.70
2023-04-19T10:56:32.841Z,56.37
2023-04-19T10:59:02.457Z,56.38
2023-04-19T11:01:35.017Z,56.76
2023-04-19T11:04:01.850Z,56.59
2023-04-19T11:06:28.755Z,57.30
2023-04-19T11:08:55.339Z,57.03
2023-04-19T11:11:21.935Z,56.13
2023-04-19T11:13:48.789Z,56.90
2023-04-19T11:16:17.158Z,57.80
2023-04-19T11:18:45.018Z,58.59
2023-04-19T11:21:15.087Z,59.03
2023-04-19T11:23:41.789Z,59.25
2023-04-19T11:26:11.484Z,59.89
2023-04-19T11:28:39.397Z,60.18
2023-04-19T11:31:07.029Z,60.38
2023-04-19T11:33:34.751Z,60.68
2023-04-19T11:36:01.444Z,61.16
2023-04-19T11:38:29.099Z,61.35
2023-04-19T11:41:02.967Z,61.87
2023-04-19T11:43:36.888Z,61.58
2023-04-19T11:46:08.260Z,61.87
2023-04-19T11:48:35.284Z,60.96
2023-04-19T11:51:02.630Z,61.75
2023-04-19T11:53:31.794Z,61.98
2023-04-19T11:55:58.378Z,62.48
2023-04-19T11:58:32.034Z,61.66
2023-04-19T12:01:10.304Z,62.11
2023-04-19T12:03:48.169Z,62.28
2023-04-19T12:06:17.050Z,62.66
2023-04-19T12:08:46.410Z,62.69
2023-04-19T12:11:14.018Z,63.17
2023-04-19T12:13:40.736Z,63.41
2023-04-19T12:16:08.198Z,62.97
2023-04-19T12:18:51.591Z,61.75
2023-04-19T12:21:28.966Z,60.84
2023-04-19T12:24:00.335Z,60.62
2023-04-19T12:26:28.343Z,60.47
2023-04-19T12:28:59.134Z,61.20
2023-04-19T12:31:26.082Z,61.70
2023-04-19T12:33:53.037Z,62.51
2023-04-19T12:36:19.929Z,62.23
2023-04-19T12:38:46.540Z,62.96
2023-04-19T12:41:13.077Z,63.50
2023-04-19T12:43:39.749Z,64.07
2023-04-19T12:46:06.377Z,64.56
2023-04-19T12:48:33.184Z,65.04
2023-04-19T12:51:00.370Z,65.46
2023-04-19T12:53:27.027Z,65.37
2023-04-19T12:55:53.779Z,64.81
2023-04-19T12:58:20.336Z,64.89
2023-04-19T13:00:47.373Z,64.03
2023-04-19T13:03:14.131Z,63.78
2023-04-19T13:05:40.865Z,64.75
2023-04-19T13:08:07.461Z,65.17
2023-04-19T13:10:34.115Z,65.65
2023-04-19T13:13:00.779Z,65.96
2023-04-19T13:15:27.651Z,65.62
2023-04-19T13:17:54.399Z,65.54
2023-04-19T13:20:21.230Z,65.64
2023-04-19T13:22:47.827Z,65.61
2023-04-19T13:25:14.428Z,65.54
2023-04-19T13:27:41.095Z,65.99
2023-04-19T13:30:08.609Z,65.76
2023-04-19T13:32:35.340Z,65.78
2023-04-19T13:35:02.213Z,65.70
2023-04-19T13:37:28.961Z,65.52
2023-04-19T13:40:06.966Z,65.98
2023-04-19T13:42:37.847Z,66.62
2023-04-19T13:45:04.868Z,66.75
2023-04-19T13:47:31.710Z,65.47
2023-04-19T13:49:58.450Z,65.45
2023-04-19T13:52:24.992Z,65.00
2023-04-19T13:54:51.545Z,64.45
2023-04-19T13:57:18.416Z,64.77
2023-04-19T13:59:45.037Z,64.84
2023-04-19T14:02:11.764Z,64.08
2023-04-19T14:04:38.463Z,64.38
2023-04-19T14:07:05.176Z,64.53
2023-04-19T14:09:31.745Z,64.50
2023-04-19T14:11:58.585Z,62.43
2023-04-19T14:14:25.284Z,61.29
2023-04-19T14:16:51.951Z,61.19
2023-04-19T14:19:18.614Z,60.91
2023-04-19T14:21:45.164Z,61.52
2023-04-19T14:24:11.810Z,60.86
2023-04-19T14:26:38.385Z,61.70
2023-04-19T14:29:04.952Z,62.64
2023-04-19T14:31:31.827Z,63.13
2023-04-19T14:33:58.837Z,63.76
2023-04-19T14:36:25.664Z,64.02
2023-04-19T14:38:52.333Z,62.98
2023-04-19T14:41:19.073Z,62.77
2023-04-19T14:43:45.607Z,62.70
2023-04-19T14:46:12.330Z,62.84
2023-04-19T14:48:39.039Z,62.08
2023-04-19T14:51:05.754Z,62.85
2023-04-19T14:53:33.933Z,62.95
2023-04-19T14:56:03.774Z,61.68
2023-04-19T14:58:30.522Z,61.97
2023-04-19T15:00:58.854Z,62.64
2023-04-19T15:03:25.976Z,63.34
2023-04-19T15:05:52.979Z,62.51
2023-04-19T15:08:30.456Z,62.29
2023-04-19T15:10:57.546Z,63.44
2023-04-19T15:13:24.337Z,64.19
2023-04-19T15:15:51.049Z,63.80
2023-04-19T15:18:17.708Z,63.60
2023-04-19T15:20:44.344Z,62.70
2023-04-19T15:23:10.969Z,63.15
2023-04-19T15:25:37.617Z,63.79
2023-04-19T15:28:04.465Z,64.21
2023-04-19T15:30:31.004Z,64.37
2023-04-19T15:32:57.729Z,64.64
2023-04-19T15:35:24.306Z,64.14
2023-04-19T15:37:50.875Z,64.75
2023-04-19T15:40:17.648Z,65.08
2023-04-19T15:42:44.194Z,64.84
2023-04-19T15:45:11.062Z,64.33
2023-04-19T15:47:37.639Z,63.74
2023-04-19T15:50:04.444Z,64.38
2023-04-19T15:52:31.016Z,65.02
2023-04-19T15:54:57.558Z,65.78
2023-04-19T15:57:24.179Z,66.48
2023-04-19T15:59:50.766Z,66.51
2023-04-19T16:02:17.484Z,66.10
2023-04-19T16:04:47.248Z,66.60
2023-04-19T16:07:14.376Z,67.32
2023-04-19T16:09:40.920Z,67.19
2023-04-19T16:12:07.555Z,66.77
2023-04-19T16:14:34.149Z,67.00
2023-04-19T16:17:00.704Z,66.69
2023-04-19T16:19:27.362Z,66.87
2023-04-19T16:21:53.951Z,66.52
2023-04-19T16:24:20.641Z,65.73
2023-04-19T16:26:47.193Z,62.88
2023-04-19T16:29:13.757Z,63.60
2023-04-19T16:31:40.455Z,64.28
2023-04-19T16:34:07.009Z,64.61
2023-04-19T16:36:33.681Z,65.01
2023-04-19T16:39:00.470Z,64.92
2023-04-19T16:41:27.169Z,64.63
2023-04-19T16:43:55.968Z,64.40
2023-04-19T16:46:22.894Z,63.95
2023-04-19T16:48:52.319Z,63.14
2023-04-19T16:51:18.857Z,63.15
2023-04-19T16:53:45.398Z,63.90
2023-04-19T16:56:12.245Z,64.37
2023-04-19T16:58:38.827Z,65.12
2023-04-19T17:01:05.838Z,65.33
2023-04-19T17:03:32.578Z,65.89
2023-04-19T17:05:59.311Z,65.96
2023-04-19T17:08:25.955Z,66.30
2023-04-19T17:10:52.666Z,66.62
2023-04-19T17:13:19.484Z,66.69
2023-04-19T17:15:46.472Z,66.46
2023-04-19T17:18:13.160Z,66.77
2023-04-19T17:20:39.960Z,66.50
2023-04-19T17:23:06.751Z,66.62
2023-04-19T17:25:33.433Z,66.65
2023-04-19T17:28:00.064Z,66.83
2023-04-19T17:30:27.286Z,66.51
2023-04-19T17:32:53.866Z,66.50
2023-04-19T17:35:20.444Z,66.39
2023-04-19T17:37:47.036Z,66.70
2023-04-19T17:40:13.586Z,66.87
2023-04-19T17:42:40.214Z,66.60
2023-04-19T17:45:07.184Z,66.61
2023-04-19T17:47:33.772Z,66.85
2023-04-19T17:50:09.159Z,65.00
2023-04-19T17:52:36.067Z,66.21
2023-04-19T17:55:03.182Z,65.98
2023-04-19T17:57:29.817Z,66.38
2023-04-19T17:59:56.569Z,66.19
2023-04-19T18:02:23.536Z,66.35
2023-04-19T18:04:50.266Z,66.31
2023-04-19T18:07:16.851Z,65.86
2023-04-19T18:09:43.476Z,65.91
2023-04-19T18:12:10.081Z,65.87
2023-04-19T18:14:36.648Z,66.16
2023-04-19T18:17:03.303Z,66.11
2023-04-19T18:19:29.854Z,66.01
2023-04-19T18:21:56.467Z,65.94
2023-04-19T18:24:23.070Z,65.77
2023-04-19T18:26:49.834Z,65.78
2023-04-19T18:29:16.643Z,65.87
2023-04-19T18:31:43.530Z,65.85
2023-04-19T18:34:12.440Z,66.09
2023-04-19T18:36:39.333Z,66.37
2023-04-19T18:39:05.902Z,66.31
2023-04-19T18:41:32.479Z,66.28
2023-04-19T18:44:30.044Z,66.55
2023-04-19T18:46:45.767Z,66.50
2023-04-19T18:49:12.384Z,66.50
2023-04-19T18:51:39.003Z,66.40
2023-04-19T18:54:05.665Z,66.39
2023-04-19T18:57:11.017Z,66.38
2023-04-19T18:59:19.439Z,66.53
2023-04-19T19:01:46.335Z,66.27
2023-04-19T19:04:42.571Z,65.42
2023-04-19T19:07:18.294Z,66.35
2023-04-19T19:09:56.582Z,66.43
2023-04-19T19:12:23.570Z,66.48
2023-04-19T19:14:50.117Z,66.28
2023-04-19T19:17:16.823Z,66.50
2023-04-19T19:19:43.660Z,66.43
2023-04-19T19:22:25.013Z,66.62
2023-04-19T19:25:00.434Z,66.81
2023-04-19T19:27:30.597Z,66.23
2023-04-19T19:29:57.690Z,66.82
2023-04-19T19:32:24.416Z,67.03
2023-04-19T19:34:56.314Z,67.17
2023-04-19T19:37:27.687Z,67.28
2023-04-19T19:39:56.437Z,67.32
2023-04-19T19:42:23.688Z,67.57
2023-04-19T19:44:53.908Z,66.99
2023-04-19T19:47:20.526Z,67.52
2023-04-19T19:50:17.258Z,67.43
2023-04-19T19:52:33.844Z,67.41
2023-04-19T19:55:00.546Z,67.62
2023-04-19T20:00:13.998Z,67.75
2023-04-19T20:02:55.099Z,67.66
2023-04-19T20:05:24.093Z,67.73
2023-04-19T20:10:20.426Z,67.71
2023-04-19T20:12:47.418Z,67.94
2023-04-19T20:15:14.270Z,67.92
2023-04-19T20:17:41.074Z,67.91
2023-04-19T20:20:08.949Z,67.83
2023-04-19T20:22:35.946Z,67.95
2023-04-19T20:25:02.615Z,67.71
2023-04-19T20:27:29.200Z,67.61
2023-04-19T20:29:56.696Z,67.22
2023-04-19T20:32:23.490Z,67.45
2023-04-19T20:34:50.137Z,67.43
2023-04-19T20:37:16.677Z,67.68
2023-04-19T20:39:43.223Z,67.61
2023-04-19T20:42:09.852Z,67.66
2023-04-19T20:44:36.402Z,67.56
2023-04-19T20:47:02.995Z,67.56
2023-04-19T20:49:29.533Z,67.45
2023-04-19T20:51:56.193Z,67.44
2023-04-19T20:54:22.811Z,67.29
2023-04-19T20:56:49.549Z,67.43
2023-04-19T20:59:16.367Z,67.42
2023-04-19T21:01:43.331Z,67.54
2023-04-19T21:04:10.070Z,67.49
2023-04-19T21:06:36.749Z,67.63
2023-04-19T21:09:03.347Z,67.66
2023-04-19T21:11:29.927Z,67.72
2023-04-19T21:13:56.726Z,67.78
2023-04-19T21:16:23.414Z,67.71
2023-04-19T21:18:50.002Z,67.79
2023-04-19T21:21:16.588Z,67.94
2023-04-19T21:23:43.192Z,67.96
2023-04-19T21:26:09.861Z,68.19
2023-04-19T21:28:36.402Z,68.03
2023-04-19T21:31:03.008Z,67.94
2023-04-19T21:33:29.641Z,67.90
2023-04-19T21:35:56.262Z,67.95
2023-04-19T21:38:22.840Z,67.90
2023-04-19T21:40:49.388Z,67.71
2023-04-19T21:43:17.558Z,67.46
2023-04-19T21:45:44.189Z,67.48
2023-04-19T21:48:10.857Z,67.70
2023-04-19T21:50:37.576Z,67.47
2023-04-19T21:53:04.179Z,67.40
2023-04-19T21:55:30.711Z,67.47
2023-04-19T21:57:57.253Z,67.83
2023-04-19T22:00:24.077Z,67.95
2023-04-19T22:02:51.044Z,67.96
2023-04-19T22:05:17.911Z,68.00
2023-04-19T22:07:44.510Z,68.02
2023-04-19T22:10:11.302Z,68.12
2023-04-19T22:12:48.049Z,68.18
2023-04-19T22:15:22.126Z,68.21
2023-04-19T22:17:48.985Z,68.21
2023-04-19T22:20:15.678Z,68.19
2023-04-19T22:22:42.365Z,68.29
2023-04-19T22:25:09.591Z,68.17
2023-04-19T22:27:36.189Z,68.27
2023-04-19T22:30:03.642Z,67.97
2023-04-19T22:32:30.392Z,67.79
2023-04-19T22:34:57.009Z,67.98
2023-04-19T22:37:23.759Z,68.02
2023-04-19T22:39:50.426Z,67.98
2023-04-19T22:42:17.005Z,68.07
2023-04-19T22:44:43.598Z,68.14
2023-04-19T22:47:10.253Z,68.05
2023-04-19T22:49:36.844Z,68.04
2023-04-19T22:52:03.723Z,68.18
2023-04-19T22:54:30.258Z,68.29
2023-04-19T22:56:56.786Z,68.43
2023-04-19T22:59:23.412Z,68.66
2023-04-19T23:01:50.198Z,68.50
2023-04-19T23:04:16.966Z,68.57
2023-04-19T23:06:43.790Z,68.69
2023-04-19T23:09:11.066Z,68.62
2023-04-19T23:11:37.727Z,68.83
2023-04-19T23:14:04.475Z,68.75
2023-04-19T23:16:31.082Z,68.88
2023-04-19T23:18:57.622Z,68.49
2023-04-19T23:21:24.198Z,68.45
2023-04-19T23:23:50.872Z,68.32
2023-04-19T23:26:17.598Z,68.12
2023-04-19T23:28:44.204Z,68.08
2023-04-19T23:31:10.899Z,68.20
2023-04-19T23:33:37.457Z,68.27
2023-04-19T23:36:04.359Z,68.32
2023-04-19T23:38:31.034Z,68.21
2023-04-19T23:40:57.580Z,68.33
2023-04-19T23:43:24.215Z,68.31
2023-04-19T23:45:50.862Z,68.02
2023-04-19T23:48:17.613Z,67.93
2023-04-19T23:50:44.148Z,68.03
2023-04-19T23:53:11.493Z,68.17
2023-04-19T23:55:38.343Z,68.26
2023-04-19T23:58:05.074Z,68.42
